Latest Weather Observations for Combienbar

IDV60801

Issued at 11:35 pm EST Wednesday 23 July 2014 (issued every 30 minutes, with the page automatically refreshed every 10 minutes)

About weather observations | Map of weather stations | Latest weather observations for VIC | Other Formats
Station Details ID: 084143 Name: COMBIENBAR AWS Lat: -37.34 Lon: 149.02 Height: 640.0 m
Data from the previous 72 hours. | See also: Recent months at Combienbar
Date/Time
EST
Temp
°C
App
Temp
°C
Dew
Point
Rel
Hum
%
Delta-T
°C
Wind Press
QNH
hPa
Press
MSL
hPa
Rain
since 9 am
mm
Dir
 
Spd
km/h
Gust
km/h
Spd
kts
Gust
kts
23/11:30pm 7.5 5.5 0.0 59 3.0 SE 0 0 0 0 1020.4 - 0.0
23/11:00pm 7.8 5.8 -0.4 56 3.3 S 0 0 0 0 1020.6 1021.2 0.0
23/10:30pm 7.9 5.8 -1.1 53 3.6 CALM 0 0 0 0 1020.8 - 0.0
23/10:00pm 8.2 6.1 -0.8 53 3.6 CALM 0 0 0 0 1021.0 1021.6 0.0
23/09:30pm 7.7 5.5 -1.8 51 3.7 CALM 0 0 0 0 1021.2 - 0.0
23/09:00pm 7.8 5.6 -1.4 52 3.6 CALM 0 0 0 0 1021.2 1021.8 0.0
23/08:30pm 7.3 5.2 -1.1 55 3.3 CALM 0 4 0 2 1021.2 - 0.0
23/08:00pm 7.6 5.5 -0.8 55 3.4 CALM 0 4 0 2 1021.2 1021.8 0.0
23/07:30pm 7.5 5.5 0.0 59 3.1 CALM 0 0 0 0 1021.0 - 0.0
23/07:00pm 7.8 5.9 0.8 61 2.9 CALM 0 0 0 0 1021.2 1021.8 0.0
23/06:30pm 7.8 6.0 1.4 64 2.7 CALM 0 4 0 2 1020.9 - 0.0
23/06:00pm 8.0 6.5 2.9 70 2.2 ENE 0 0 0 0 1020.7 1021.3 0.0
23/05:30pm 7.8 5.7 3.7 75 1.8 NNE 4 6 2 3 1020.8 - 0.0
23/05:00pm 8.2 6.7 4.8 79 1.6 NNE 2 4 1 2 1020.7 1021.3 0.0
23/04:30pm 9.1 7.7 5.3 77 1.8 NNE 2 7 1 4 1020.7 - 0.0
23/04:00pm 10.1 9.1 5.7 74 2.1 CALM 0 0 0 0 1020.6 1021.2 0.0
23/03:30pm 12.1 11.4 6.8 70 2.6 CALM 0 0 0 0 1020.7 - 0.0
23/03:00pm 13.6 12.8 6.7 63 3.4 CALM 0 0 0 0 1020.8 1021.4 0.0
23/02:30pm 14.6 13.8 6.7 59 4.0 CALM 0 2 0 1 1020.8 - 0.0
23/02:00pm 14.6 13.7 6.2 57 4.2 CALM 0 4 0 2 1020.9 1021.5 0.0
23/01:30pm 14.9 13.8 6.7 58 4.1 NNE 2 4 1 2 1021.3 - 0.0
23/01:00pm 14.5 13.2 6.1 57 4.2 NNE 2 4 1 2 1021.7 1022.3 0.0
23/12:30pm 14.1 12.8 6.2 59 3.9 NNE 2 6 1 3 1022.1 - 0.0
23/12:00pm 13.4 11.5 5.1 57 4.0 NNE 4 7 2 4 1022.7 1023.4 0.0
23/11:30am 13.0 11.3 6.1 63 3.4 NNE 4 7 2 4 1023.3 - 0.0
23/11:00am 11.9 10.0 4.9 62 3.3 NNE 4 6 2 3 1023.8 1024.5 0.0
23/10:30am 12.1 10.7 5.3 63 3.3 NNE 2 6 1 3 1024.1 - 0.0
23/10:00am 11.3 9.7 4.5 63 3.2 NNE 2 6 1 3 1024.3 1025.0 0.0
23/09:30am 9.7 8.4 4.3 69 2.5 CALM 0 4 0 2 1024.3 - 0.0
23/09:00am 7.2 5.8 3.4 77 1.7 CALM 0 0 0 0 1024.6 1025.2 0.0
23/08:30am 6.3 4.8 2.8 78 1.5 CALM 0 0 0 0 1024.3 - 0.0
23/08:00am 6.3 4.8 2.8 78 1.5 CALM 0 0 0 0 1024.1 1024.8 0.0
23/07:30am 5.6 4.0 2.4 80 1.4 CALM 0 0 0 0 1024.0 - 0.0
23/07:00am 5.3 3.6 2.1 80 1.3 CALM 0 0 0 0 1023.9 1024.6 0.0
23/06:30am 4.9 3.3 2.3 83 1.1 CALM 0 0 0 0 1023.6 - 0.0
23/06:00am 5.0 3.4 2.2 82 1.2 CALM 0 2 0 1 1023.4 1024.0 0.0
23/05:30am 5.2 3.5 1.9 79 1.4 CALM 0 0 0 0 1023.3 - 0.0
23/05:00am 5.1 3.5 2.3 82 1.2 CALM 0 0 0 0 1023.2 1023.8 0.0
23/04:30am 5.5 3.8 1.8 77 1.5 CALM 0 0 0 0 1023.1 - 0.0
23/04:00am 5.9 4.2 2.0 76 1.6 CALM 0 0 0 0 1023.0 1023.6 0.0
23/03:30am 6.1 4.5 2.2 76 1.7 CALM 0 0 0 0 1023.1 - 0.0
23/03:00am 5.7 4.1 2.2 78 1.5 CALM 0 0 0 0 1023.2 1023.8 0.0
23/02:30am 5.8 4.2 2.3 78 1.5 CALM 0 0 0 0 1023.4 - 0.0
23/02:00am 5.6 4.1 2.8 82 1.2 CALM 0 0 0 0 1023.8 1024.5 0.0
23/01:30am 5.7 4.2 2.9 82 1.2 CALM 0 0 0 0 1023.8 - 0.0
23/01:00am 5.5 4.1 3.5 87 0.9 CALM 0 0 0 0 1024.0 1024.7 0.0
23/12:30am 5.4 4.0 3.3 86 0.9 CALM 0 0 0 0 1024.2 - 0.0
23/12:00am 5.0 3.5 3.0 87 0.9 W 0 0 0 0 1024.3 1025.0 0.0
 
Date/Time
EST
Temp
°C
App
Temp
°C
Dew
Point
Rel
Hum
%
Delta-T
°C
Wind Press
QNH
hPa
Press
MSL
hPa
Rain
since 9 am
mm
Dir
 
Spd
km/h
Gust
km/h
Spd
kts
Gust
kts
22/11:30pm 4.7 3.3 3.5 92 0.5 CALM 0 0 0 0 1024.4 - 0.0
22/11:00pm 5.0 3.6 3.7 91 0.6 CALM 0 0 0 0 1024.6 1025.2 0.0
22/10:30pm 5.0 3.6 3.5 90 0.6 CALM 0 0 0 0 1024.4 - 0.0
22/10:00pm 5.2 3.5 3.9 91 0.6 WNW 2 6 1 3 1024.7 1025.3 0.0
22/09:30pm 5.5 4.2 4.0 90 0.7 CALM 0 2 0 1 1024.6 - 0.0
22/09:00pm 5.9 4.7 4.4 90 0.7 CALM 0 0 0 0 1024.9 1025.5 0.0
22/08:30pm 6.2 5.0 4.7 90 0.7 CALM 0 0 0 0 1024.8 - 0.0
22/08:00pm 6.2 5.0 4.8 91 0.6 CALM 0 0 0 0 1024.7 1025.3 0.0
22/07:30pm 6.2 5.1 5.0 92 0.5 CALM 0 0 0 0 1024.7 - 0.0
22/07:00pm 6.4 5.4 5.4 93 0.5 CALM 0 0 0 0 1024.6 1025.2 0.0
22/06:30pm 6.5 5.4 5.3 92 0.6 CALM 0 0 0 0 1024.7 - 0.0
22/06:00pm 6.8 5.8 5.6 92 0.6 CALM 0 0 0 0 1024.3 1025.0 0.0
22/05:30pm 6.8 5.8 5.4 91 0.6 CALM 0 0 0 0 1024.2 - 0.0
22/05:00pm 7.0 5.9 5.3 89 0.8 CALM 0 0 0 0 1024.1 1024.8 0.0
22/04:30pm 7.5 6.5 5.6 88 0.9 CALM 0 0 0 0 1024.0 - 0.0
22/04:00pm 7.8 6.8 5.6 86 1.0 CALM 0 0 0 0 1023.9 1024.6 0.0
22/03:30pm 7.8 6.8 5.4 85 1.1 CALM 0 0 0 0 1023.7 - 0.0
22/03:00pm 8.2 7.1 5.3 82 1.3 CALM 0 2 0 1 1023.5 1024.1 0.0
22/02:30pm 9.9 9.1 6.3 78 1.7 CALM 0 6 0 3 1023.5 - 0.0
22/02:00pm 8.1 6.9 4.5 78 1.6 CALM 0 0 0 0 1023.4 1024.0 0.0
22/01:30pm 8.8 7.6 4.8 76 1.8 CALM 0 2 0 1 1023.5 - 0.0
22/01:00pm 8.5 7.4 4.9 78 1.7 CALM 0 0 0 0 1023.6 1024.2 0.0
22/12:30pm 8.6 7.4 4.8 77 1.8 CALM 0 0 0 0 1023.8 - 0.0
22/12:00pm 8.9 7.7 4.5 74 2.0 CALM 0 0 0 0 1024.3 1025.0 0.0
22/11:30am 9.2 7.8 3.6 68 2.5 CALM 0 0 0 0 1024.9 - 0.0
22/11:00am 8.9 7.5 3.3 68 2.5 CALM 0 4 0 2 1025.4 1026.1 0.0
22/10:30am 8.0 6.4 2.7 69 2.3 CALM 0 0 0 0 1025.5 - 0.0
22/10:00am 7.7 6.1 2.2 68 2.4 CALM 0 0 0 0 1025.5 1026.2 0.0
22/09:30am 7.1 5.1 2.2 71 2.1 W 2 6 1 3 1025.6 - 0.0
22/09:00am 6.9 5.3 2.2 72 2.0 CALM 0 0 0 0 1025.4 1026.1 0.0
22/08:30am 5.7 4.0 1.8 76 1.6 CALM 0 4 0 2 1025.2 - 0.0
22/08:00am 5.0 3.2 1.5 78 1.4 CALM 0 6 0 3 1024.8 1025.4 0.0
22/07:30am 4.2 2.4 1.2 81 1.2 CALM 0 2 0 1 1024.6 - 0.0
22/07:00am 4.3 2.4 0.8 78 1.4 CALM 0 4 0 2 1024.2 1024.9 0.0
22/06:30am 4.0 2.1 0.3 77 1.5 CALM 0 0 0 0 1023.9 - 0.0
22/06:00am 3.9 1.9 0.2 77 1.5 CALM 0 0 0 0 1023.7 1024.3 0.0
22/05:30am 4.2 2.3 0.7 78 1.4 CALM 0 0 0 0 1023.5 - 0.0
22/05:00am 4.5 2.6 0.3 74 1.7 CALM 0 0 0 0 1023.4 1024.0 0.0
22/04:30am 4.4 2.5 0.7 77 1.5 CALM 0 0 0 0 1023.5 - 0.0
22/04:00am 4.4 2.5 0.7 77 1.5 CALM 0 0 0 0 1023.5 1024.1 0.0
22/03:30am 4.5 2.7 1.0 78 1.4 CALM 0 0 0 0 1023.5 - 0.0
22/03:00am 4.7 2.8 0.8 76 1.6 CALM 0 0 0 0 1023.6 1024.2 0.0
22/02:30am 4.7 2.8 0.7 75 1.6 CALM 0 0 0 0 1023.8 - 0.0
22/02:00am 4.9 2.9 0.1 71 1.9 CALM 0 0 0 0 1023.7 1024.3 0.0
22/01:30am 4.5 2.6 0.5 75 1.6 CALM 0 0 0 0 1023.7 - 0.0
22/01:00am 4.7 2.8 0.3 73 1.7 CALM 0 0 0 0 1023.7 1024.3 0.0
22/12:30am 4.8 2.8 0.2 72 1.8 CALM 0 0 0 0 1023.8 - 0.0
22/12:00am 5.0 3.2 0.9 75 1.7 CALM 0 0 0 0 1023.9 1024.6 0.0
 
Date/Time
EST
Temp
°C
App
Temp
°C
Dew
Point
Rel
Hum
%
Delta-T
°C
Wind Press
QNH
hPa
Press
MSL
hPa
Rain
since 9 am
mm
Dir
 
Spd
km/h
Gust
km/h
Spd
kts
Gust
kts
21/11:30pm 5.0 3.3 1.7 79 1.4 CALM 0 0 0 0 1024.1 - 0.0
21/11:00pm 5.4 3.4 0.0 68 2.1 CALM 0 2 0 1 1024.2 1024.9 0.0
21/10:30pm 5.2 3.6 2.6 83 1.1 CALM 0 4 0 2 1024.3 - 0.0
21/10:00pm 5.3 3.9 3.8 90 0.7 CALM 0 0 0 0 1024.6 1025.2 0.0
21/09:30pm 5.1 3.7 3.8 91 0.6 CALM 0 0 0 0 1024.8 - 0.0
21/09:00pm 5.1 3.7 3.8 91 0.6 CALM 0 0 0 0 1024.9 1025.5 0.0
21/08:30pm 5.4 4.1 3.9 90 0.7 CALM 0 0 0 0 1024.9 - 0.0
21/08:00pm 5.4 4.0 3.7 89 0.7 CALM 0 0 0 0 1024.9 1025.5 0.0
21/07:30pm 5.6 4.2 3.6 87 0.9 CALM 0 0 0 0 1024.9 - 0.0
21/07:00pm 5.6 4.3 3.9 89 0.7 CALM 0 0 0 0 1024.8 1025.4 0.0
21/06:30pm 5.6 4.2 3.8 88 0.8 CALM 0 0 0 0 1024.7 - 0.0
21/06:00pm 6.0 4.7 4.0 87 0.9 CALM 0 0 0 0 1024.4 1025.1 0.0
21/05:30pm 6.5 5.2 4.3 86 1.0 CALM 0 0 0 0 1024.1 - 0.0
21/05:00pm 6.7 5.5 4.5 86 1.0 CALM 0 0 0 0 1023.9 1024.6 0.0
21/04:30pm 7.1 5.8 4.2 82 1.3 CALM 0 0 0 0 1023.8 - 0.0
21/04:00pm 7.8 6.5 4.0 77 1.7 CALM 0 0 0 0 1023.6 1024.2 0.0
21/03:30pm 8.3 6.9 3.8 73 2.0 CALM 0 0 0 0 1023.5 - 0.0
21/03:00pm 9.1 7.8 4.3 72 2.2 CALM 0 0 0 0 1023.4 1024.0 0.0
21/02:30pm 8.4 7.0 3.8 73 2.1 CALM 0 0 0 0 1023.4 - 0.0
21/02:00pm 8.6 7.2 3.6 71 2.2 CALM 0 0 0 0 1023.4 1024.0 0.0
21/01:30pm 8.4 7.0 3.3 70 2.3 CALM 0 0 0 0 1023.5 - 0.0
21/01:00pm 8.7 7.4 3.9 72 2.2 CALM 0 0 0 0 1023.6 1024.2 0.0
21/12:30pm 8.5 7.2 4.1 74 2.0 CALM 0 0 0 0 1024.0 - 0.0
21/12:00pm 9.3 7.2 4.1 70 2.4 ESE 4 7 2 4 1024.4 1025.1 0.0
21/11:30am 9.0 7.2 3.6 69 2.4 E 2 6 1 3 1024.9 - 0.0
21/11:00am 8.5 7.1 3.4 70 2.3 CALM 0 2 0 1 1025.3 1026.0 0.0
21/10:30am 8.7 6.8 3.1 68 2.5 NE 2 6 1 3 1025.5 - 0.0
21/10:00am 9.3 7.5 3.5 67 2.6 NNE 2 4 1 2 1025.7 1026.4 0.0
21/09:30am 7.3 5.4 3.0 74 1.9 NNE 2 6 1 3 1025.9 - 0.0
21/09:00am 5.2 3.4 1.5 77 1.5 CALM 0 0 0 0 1026.0 1026.7 0.0
21/08:30am 4.8 2.9 0.8 75 1.6 CALM 0 0 0 0 1025.9 - 0.0
21/08:00am 4.2 2.3 0.5 77 1.5 CALM 0 0 0 0 1025.8 1026.5 0.0
21/07:30am 4.1 2.2 0.3 76 1.5 CALM 0 0 0 0 1025.8 - 0.0
21/07:00am 3.9 1.9 0.1 76 1.5 CALM 0 0 0 0 1025.8 1026.5 0.0
21/06:30am 4.4 2.4 0.2 74 1.7 CALM 0 0 0 0 1025.6 - 0.0
21/06:00am 4.2 2.2 0.2 75 1.6 CALM 0 0 0 0 1025.5 1026.2 0.0
21/05:30am 4.2 2.2 0.2 75 1.6 CALM 0 0 0 0 1025.4 - 0.0
21/05:00am 4.3 2.4 0.3 75 1.6 CALM 0 0 0 0 1025.2 1025.9 0.0
21/04:30am 4.3 2.4 0.3 75 1.6 CALM 0 0 0 0 1025.2 - 0.0
21/04:00am 4.4 2.5 0.4 75 1.6 CALM 0 0 0 0 1025.2 1025.9 0.0
21/03:30am 4.1 2.1 0.1 75 1.6 CALM 0 0 0 0 1025.4 - 0.0
21/03:00am 4.3 2.3 -0.1 73 1.7 CALM 0 0 0 0 1025.5 1026.2 0.0
21/02:30am 4.7 2.7 0.1 72 1.8 CALM 0 0 0 0 1025.6 - 0.0
21/02:00am 4.7 2.7 -0.1 71 1.9 CALM 0 0 0 0 1025.6 1026.3 0.0
21/01:30am 4.8 2.9 0.4 73 1.8 CALM 0 0 0 0 1025.7 - 0.0
21/01:00am 4.7 2.7 0.1 72 1.8 CALM 0 0 0 0 1025.8 1026.5 0.0
21/12:30am 4.8 2.8 0.2 72 1.8 CALM 0 0 0 0 1025.9 - 0.0
21/12:00am 4.8 2.8 0.2 72 1.8 CALM 0 0 0 0 1026.2 1026.8 0.0

Other Formats:

Comma delimited format used in spreadsheet applications
http://www.bom.gov.au/fwo/IDV60801/IDV60801.94914.axf

JavaScript Object Notation format (JSON) in row-major order
http://www.bom.gov.au/fwo/IDV60801/IDV60801.94914.json